sensor_id;sensor_type;location;lat;lon;timestamp;P1;durP1;ratioP1;P2;durP2;ratioP2
20734;SDS011;10528;52.124;5.196;2023-12-29T00:00:52;11.45;;;1.98;;
20734;SDS011;10528;52.124;5.196;2023-12-29T00:03:19;10.20;;;1.95;;
20734;SDS011;10528;52.124;5.196;2023-12-29T00:05:46;8.77;;;2.25;;
20734;SDS011;10528;52.124;5.196;2023-12-29T00:08:13;10.35;;;2.15;;
20734;SDS011;10528;52.124;5.196;2023-12-29T00:10:40;10.73;;;1.73;;
20734;SDS011;10528;52.124;5.196;2023-12-29T00:13:07;16.30;;;2.15;;
20734;SDS011;10528;52.124;5.196;2023-12-29T00:15:34;11.73;;;1.95;;
20734;SDS011;10528;52.124;5.196;2023-12-29T00:18:01;9.60;;;2.10;;
20734;SDS011;10528;52.124;5.196;2023-12-29T00:20:28;9.45;;;1.98;;
20734;SDS011;10528;52.124;5.196;2023-12-29T00:23:06;13.40;;;2.00;;
20734;SDS011;10528;52.124;5.196;2023-12-29T00:25:36;11.10;;;2.20;;
20734;SDS011;10528;52.124;5.196;2023-12-29T00:28:04;10.55;;;2.15;;
20734;SDS011;10528;52.124;5.196;2023-12-29T00:30:31;10.00;;;1.98;;
20734;SDS011;10528;52.124;5.196;2023-12-29T00:33:19;13.98;;;2.13;;
20734;SDS011;10528;52.124;5.196;2023-12-29T00:35:46;12.60;;;2.20;;
20734;SDS011;10528;52.124;5.196;2023-12-29T00:38:13;7.72;;;2.30;;
20734;SDS011;10528;52.124;5.196;2023-12-29T00:40:40;16.20;;;3.05;;
20734;SDS011;10528;52.124;5.196;2023-12-29T00:43:07;14.02;;;2.20;;
20734;SDS011;10528;52.124;5.196;2023-12-29T00:45:34;10.73;;;2.05;;
20734;SDS011;10528;52.124;5.196;2023-12-29T00:48:02;13.57;;;2.90;;
20734;SDS011;10528;52.124;5.196;2023-12-29T00:50:30;12.07;;;2.10;;
20734;SDS011;10528;52.124;5.196;2023-12-29T00:52:57;9.38;;;2.13;;
20734;SDS011;10528;52.124;5.196;2023-12-29T00:55:24;13.98;;;2.40;;
20734;SDS011;10528;52.124;5.196;2023-12-29T00:57:51;11.95;;;2.42;;
20734;SDS011;10528;52.124;5.196;2023-12-29T01:00:18;12.45;;;1.98;;
20734;SDS011;10528;52.124;5.196;2023-12-29T01:02:45;14.90;;;2.10;;
20734;SDS011;10528;52.124;5.196;2023-12-29T01:05:15;8.77;;;1.95;;
20734;SDS011;10528;52.124;5.196;2023-12-29T01:07:46;8.57;;;2.17;;
20734;SDS011;10528;52.124;5.196;2023-12-29T01:10:13;12.05;;;1.50;;
20734;SDS011;10528;52.124;5.196;2023-12-29T01:12:40;8.15;;;2.05;;
20734;SDS011;10528;52.124;5.196;2023-12-29T01:15:07;13.13;;;2.03;;
20734;SDS011;10528;52.124;5.196;2023-12-29T01:17:35;9.93;;;2.10;;
20734;SDS011;10528;52.124;5.196;2023-12-29T01:20:02;11.75;;;2.17;;
20734;SDS011;10528;52.124;5.196;2023-12-29T01:22:30;6.63;;;1.95;;
20734;SDS011;10528;52.124;5.196;2023-12-29T01:25:01;7.60;;;1.58;;
20734;SDS011;10528;52.124;5.196;2023-12-29T01:27:28;7.20;;;2.03;;
20734;SDS011;10528;52.124;5.196;2023-12-29T01:29:56;12.75;;;2.53;;
20734;SDS011;10528;52.124;5.196;2023-12-29T01:32:23;11.55;;;2.05;;
20734;SDS011;10528;52.124;5.196;2023-12-29T01:34:51;9.23;;;1.98;;
20734;SDS011;10528;52.124;5.196;2023-12-29T01:37:19;9.45;;;2.03;;
20734;SDS011;10528;52.124;5.196;2023-12-29T01:39:46;12.30;;;2.38;;
20734;SDS011;10528;52.124;5.196;2023-12-29T01:42:14;7.25;;;1.90;;
20734;SDS011;10528;52.124;5.196;2023-12-29T01:44:41;10.40;;;2.08;;
20734;SDS011;10528;52.124;5.196;2023-12-29T01:47:15;11.35;;;1.90;;
20734;SDS011;10528;52.124;5.196;2023-12-29T01:49:43;10.63;;;3.28;;
20734;SDS011;10528;52.124;5.196;2023-12-29T01:52:13;7.63;;;1.80;;
20734;SDS011;10528;52.124;5.196;2023-12-29T01:54:44;11.13;;;2.42;;
20734;SDS011;10528;52.124;5.196;2023-12-29T01:57:15;11.70;;;2.28;;
20734;SDS011;10528;52.124;5.196;2023-12-29T01:59:42;7.75;;;1.83;;
20734;SDS011;10528;52.124;5.196;2023-12-29T02:02:11;5.78;;;1.40;;
20734;SDS011;10528;52.124;5.196;2023-12-29T02:04:39;9.90;;;2.00;;
20734;SDS011;10528;52.124;5.196;2023-12-29T02:07:08;9.45;;;2.10;;
20734;SDS011;10528;52.124;5.196;2023-12-29T02:09:35;9.05;;;2.13;;
20734;SDS011;10528;52.124;5.196;2023-12-29T02:12:03;8.80;;;1.90;;
20734;SDS011;10528;52.124;5.196;2023-12-29T02:14:31;11.73;;;1.77;;
20734;SDS011;10528;52.124;5.196;2023-12-29T02:17:04;10.85;;;1.95;;
20734;SDS011;10528;52.124;5.196;2023-12-29T02:19:43;9.85;;;1.85;;
20734;SDS011;10528;52.124;5.196;2023-12-29T02:22:14;7.07;;;1.48;;
20734;SDS011;10528;52.124;5.196;2023-12-29T02:24:59;9.90;;;2.10;;
20734;SDS011;10528;52.124;5.196;2023-12-29T02:30:30;10.30;;;2.03;;
20734;SDS011;10528;52.124;5.196;2023-12-29T02:33:23;8.68;;;1.80;;
20734;SDS011;10528;52.124;5.196;2023-12-29T02:35:52;7.32;;;1.55;;
20734;SDS011;10528;52.124;5.196;2023-12-29T02:38:22;7.72;;;1.75;;
20734;SDS011;10528;52.124;5.196;2023-12-29T02:40:49;7.65;;;2.00;;
20734;SDS011;10528;52.124;5.196;2023-12-29T02:43:17;7.93;;;2.17;;
20734;SDS011;10528;52.124;5.196;2023-12-29T02:45:43;7.50;;;1.75;;
20734;SDS011;10528;52.124;5.196;2023-12-29T02:48:10;8.43;;;1.90;;
20734;SDS011;10528;52.124;5.196;2023-12-29T02:50:38;7.03;;;1.55;;
20734;SDS011;10528;52.124;5.196;2023-12-29T02:53:05;11.63;;;2.17;;
20734;SDS011;10528;52.124;5.196;2023-12-29T02:55:33;11.50;;;2.20;;
20734;SDS011;10528;52.124;5.196;2023-12-29T02:58:00;7.57;;;1.80;;
20734;SDS011;10528;52.124;5.196;2023-12-29T03:00:27;11.43;;;3.20;;
20734;SDS011;10528;52.124;5.196;2023-12-29T03:02:54;12.75;;;2.20;;
20734;SDS011;10528;52.124;5.196;2023-12-29T03:05:21;15.38;;;2.45;;
20734;SDS011;10528;52.124;5.196;2023-12-29T03:07:48;11.70;;;2.08;;
20734;SDS011;10528;52.124;5.196;2023-12-29T03:10:15;12.63;;;2.60;;
20734;SDS011;10528;52.124;5.196;2023-12-29T03:12:42;11.40;;;2.17;;
20734;SDS011;10528;52.124;5.196;2023-12-29T03:15:09;14.35;;;2.33;;
20734;SDS011;10528;52.124;5.196;2023-12-29T03:17:36;12.30;;;2.63;;
20734;SDS011;10528;52.124;5.196;2023-12-29T03:20:04;11.50;;;2.70;;
20734;SDS011;10528;52.124;5.196;2023-12-29T03:22:32;14.73;;;2.42;;
20734;SDS011;10528;52.124;5.196;2023-12-29T03:24:59;13.95;;;2.58;;
20734;SDS011;10528;52.124;5.196;2023-12-29T03:27:26;12.63;;;2.30;;
20734;SDS011;10528;52.124;5.196;2023-12-29T03:29:54;11.23;;;3.00;;
20734;SDS011;10528;52.124;5.196;2023-12-29T03:32:21;16.70;;;3.25;;
20734;SDS011;10528;52.124;5.196;2023-12-29T03:34:48;19.05;;;3.38;;
20734;SDS011;10528;52.124;5.196;2023-12-29T03:37:15;16.77;;;3.72;;
20734;SDS011;10528;52.124;5.196;2023-12-29T03:39:42;13.20;;;2.90;;
20734;SDS011;10528;52.124;5.196;2023-12-29T03:42:10;11.20;;;2.85;;
20734;SDS011;10528;52.124;5.196;2023-12-29T03:44:37;13.23;;;2.90;;
20734;SDS011;10528;52.124;5.196;2023-12-29T03:47:04;12.35;;;2.70;;
20734;SDS011;10528;52.124;5.196;2023-12-29T03:49:32;13.88;;;3.10;;
20734;SDS011;10528;52.124;5.196;2023-12-29T03:52:00;15.63;;;2.67;;
20734;SDS011;10528;52.124;5.196;2023-12-29T03:54:27;13.38;;;2.28;;
20734;SDS011;10528;52.124;5.196;2023-12-29T03:56:54;15.35;;;2.80;;
20734;SDS011;10528;52.124;5.196;2023-12-29T03:59:21;18.80;;;2.42;;
20734;SDS011;10528;52.124;5.196;2023-12-29T04:01:48;14.70;;;2.65;;
20734;SDS011;10528;52.124;5.196;2023-12-29T04:04:16;14.93;;;2.58;;
20734;SDS011;10528;52.124;5.196;2023-12-29T04:06:43;12.10;;;2.40;;
20734;SDS011;10528;52.124;5.196;2023-12-29T04:09:10;19.08;;;3.28;;
20734;SDS011;10528;52.124;5.196;2023-12-29T04:11:37;11.27;;;2.65;;
20734;SDS011;10528;52.124;5.196;2023-12-29T04:14:04;12.63;;;2.45;;
20734;SDS011;10528;52.124;5.196;2023-12-29T04:16:30;12.00;;;2.42;;
20734;SDS011;10528;52.124;5.196;2023-12-29T04:18:57;12.85;;;2.67;;
20734;SDS011;10528;52.124;5.196;2023-12-29T04:21:24;11.75;;;2.38;;
20734;SDS011;10528;52.124;5.196;2023-12-29T04:23:51;19.08;;;3.17;;
20734;SDS011;10528;52.124;5.196;2023-12-29T04:26:18;15.52;;;2.63;;
20734;SDS011;10528;52.124;5.196;2023-12-29T04:28:45;18.13;;;2.92;;
20734;SDS011;10528;52.124;5.196;2023-12-29T04:31:12;16.60;;;3.22;;
20734;SDS011;10528;52.124;5.196;2023-12-29T04:33:39;13.55;;;2.47;;
20734;SDS011;10528;52.124;5.196;2023-12-29T04:36:06;13.95;;;2.20;;
20734;SDS011;10528;52.124;5.196;2023-12-29T04:38:33;21.50;;;2.88;;
20734;SDS011;10528;52.124;5.196;2023-12-29T04:41:00;15.48;;;2.80;;
20734;SDS011;10528;52.124;5.196;2023-12-29T04:43:27;22.75;;;3.08;;
20734;SDS011;10528;52.124;5.196;2023-12-29T04:45:53;16.88;;;2.72;;
20734;SDS011;10528;52.124;5.196;2023-12-29T04:48:20;20.10;;;3.78;;
20734;SDS011;10528;52.124;5.196;2023-12-29T04:50:47;15.15;;;2.60;;
20734;SDS011;10528;52.124;5.196;2023-12-29T04:53:14;21.20;;;3.05;;
20734;SDS011;10528;52.124;5.196;2023-12-29T04:55:41;15.00;;;2.80;;
20734;SDS011;10528;52.124;5.196;2023-12-29T04:58:08;20.08;;;2.80;;
20734;SDS011;10528;52.124;5.196;2023-12-29T05:00:35;14.48;;;2.90;;
20734;SDS011;10528;52.124;5.196;2023-12-29T05:03:03;21.00;;;3.58;;
20734;SDS011;10528;52.124;5.196;2023-12-29T05:05:31;14.95;;;2.83;;
20734;SDS011;10528;52.124;5.196;2023-12-29T05:07:58;15.70;;;2.42;;
20734;SDS011;10528;52.124;5.196;2023-12-29T05:10:25;16.80;;;3.05;;
20734;SDS011;10528;52.124;5.196;2023-12-29T05:12:52;17.08;;;3.10;;
20734;SDS011;10528;52.124;5.196;2023-12-29T05:15:19;15.80;;;2.55;;
20734;SDS011;10528;52.124;5.196;2023-12-29T05:17:46;18.33;;;3.25;;
20734;SDS011;10528;52.124;5.196;2023-12-29T05:20:13;18.17;;;3.22;;
20734;SDS011;10528;52.124;5.196;2023-12-29T05:22:40;15.93;;;2.95;;
20734;SDS011;10528;52.124;5.196;2023-12-29T05:25:07;19.17;;;3.97;;
20734;SDS011;10528;52.124;5.196;2023-12-29T05:27:34;18.55;;;3.20;;
20734;SDS011;10528;52.124;5.196;2023-12-29T05:30:04;17.70;;;3.28;;
20734;SDS011;10528;52.124;5.196;2023-12-29T05:32:32;19.65;;;2.88;;
20734;SDS011;10528;52.124;5.196;2023-12-29T05:34:59;18.83;;;3.15;;
20734;SDS011;10528;52.124;5.196;2023-12-29T05:37:26;15.43;;;3.58;;
20734;SDS011;10528;52.124;5.196;2023-12-29T05:39:53;15.68;;;2.63;;
20734;SDS011;10528;52.124;5.196;2023-12-29T05:42:20;22.45;;;3.63;;
20734;SDS011;10528;52.124;5.196;2023-12-29T05:44:47;14.60;;;2.70;;
20734;SDS011;10528;52.124;5.196;2023-12-29T05:47:15;12.85;;;2.63;;
20734;SDS011;10528;52.124;5.196;2023-12-29T05:49:44;17.48;;;3.00;;
20734;SDS011;10528;52.124;5.196;2023-12-29T05:52:12;13.38;;;2.63;;
20734;SDS011;10528;52.124;5.196;2023-12-29T05:54:39;11.73;;;2.42;;
20734;SDS011;10528;52.124;5.196;2023-12-29T05:57:06;14.70;;;2.92;;
20734;SDS011;10528;52.124;5.196;2023-12-29T05:59:33;16.02;;;3.05;;
20734;SDS011;10528;52.124;5.196;2023-12-29T06:02:00;15.80;;;3.38;;
20734;SDS011;10528;52.124;5.196;2023-12-29T06:04:27;13.60;;;2.33;;
20734;SDS011;10528;52.124;5.196;2023-12-29T06:06:54;15.63;;;2.83;;
20734;SDS011;10528;52.124;5.196;2023-12-29T06:09:21;19.25;;;3.75;;
20734;SDS011;10528;52.124;5.196;2023-12-29T06:11:48;15.50;;;3.65;;
20734;SDS011;10528;52.124;5.196;2023-12-29T06:14:16;16.88;;;2.85;;
20734;SDS011;10528;52.124;5.196;2023-12-29T06:16:43;13.95;;;3.03;;
20734;SDS011;10528;52.124;5.196;2023-12-29T06:19:11;14.88;;;3.15;;
20734;SDS011;10528;52.124;5.196;2023-12-29T06:21:41;17.88;;;2.67;;
20734;SDS011;10528;52.124;5.196;2023-12-29T06:24:12;16.48;;;3.05;;
20734;SDS011;10528;52.124;5.196;2023-12-29T06:26:39;16.02;;;3.47;;
20734;SDS011;10528;52.124;5.196;2023-12-29T06:29:09;20.75;;;2.67;;
20734;SDS011;10528;52.124;5.196;2023-12-29T06:31:39;17.45;;;3.08;;
20734;SDS011;10528;52.124;5.196;2023-12-29T06:34:09;12.63;;;2.28;;
20734;SDS011;10528;52.124;5.196;2023-12-29T06:36:36;14.77;;;2.88;;
20734;SDS011;10528;52.124;5.196;2023-12-29T06:39:03;15.30;;;2.63;;
20734;SDS011;10528;52.124;5.196;2023-12-29T06:41:30;14.15;;;2.58;;
20734;SDS011;10528;52.124;5.196;2023-12-29T06:43:58;12.80;;;2.08;;
20734;SDS011;10528;52.124;5.196;2023-12-29T06:46:25;11.38;;;2.08;;
20734;SDS011;10528;52.124;5.196;2023-12-29T06:48:52;8.65;;;2.28;;
20734;SDS011;10528;52.124;5.196;2023-12-29T06:51:20;17.02;;;2.55;;
20734;SDS011;10528;52.124;5.196;2023-12-29T06:53:50;16.15;;;2.42;;
20734;SDS011;10528;52.124;5.196;2023-12-29T06:56:17;10.75;;;2.17;;
20734;SDS011;10528;52.124;5.196;2023-12-29T06:58:45;18.20;;;2.67;;
20734;SDS011;10528;52.124;5.196;2023-12-29T07:01:12;9.27;;;2.47;;
20734;SDS011;10528;52.124;5.196;2023-12-29T07:03:39;8.13;;;2.30;;
20734;SDS011;10528;52.124;5.196;2023-12-29T07:06:07;8.90;;;1.83;;
20734;SDS011;10528;52.124;5.196;2023-12-29T07:08:36;12.88;;;2.65;;
20734;SDS011;10528;52.124;5.196;2023-12-29T07:11:03;12.98;;;2.30;;
20734;SDS011;10528;52.124;5.196;2023-12-29T07:13:30;6.85;;;1.80;;
20734;SDS011;10528;52.124;5.196;2023-12-29T07:15:57;7.50;;;1.83;;
20734;SDS011;10528;52.124;5.196;2023-12-29T07:18:24;8.43;;;1.52;;
20734;SDS011;10528;52.124;5.196;2023-12-29T07:20:51;6.85;;;1.55;;
20734;SDS011;10528;52.124;5.196;2023-12-29T07:23:18;7.32;;;1.48;;
20734;SDS011;10528;52.124;5.196;2023-12-29T07:25:46;11.52;;;2.15;;
20734;SDS011;10528;52.124;5.196;2023-12-29T07:28:14;10.63;;;2.00;;
20734;SDS011;10528;52.124;5.196;2023-12-29T07:30:41;9.98;;;2.08;;
20734;SDS011;10528;52.124;5.196;2023-12-29T07:33:08;9.88;;;2.22;;
20734;SDS011;10528;52.124;5.196;2023-12-29T07:35:36;6.28;;;1.70;;
20734;SDS011;10528;52.124;5.196;2023-12-29T07:38:03;6.57;;;2.10;;
20734;SDS011;10528;52.124;5.196;2023-12-29T07:40:30;8.93;;;2.00;;
20734;SDS011;10528;52.124;5.196;2023-12-29T07:42:57;6.40;;;1.80;;
20734;SDS011;10528;52.124;5.196;2023-12-29T07:45:24;8.93;;;2.05;;
20734;SDS011;10528;52.124;5.196;2023-12-29T07:47:51;4.30;;;1.90;;
20734;SDS011;10528;52.124;5.196;2023-12-29T07:50:18;10.10;;;2.35;;
20734;SDS011;10528;52.124;5.196;2023-12-29T07:52:45;11.68;;;2.80;;
20734;SDS011;10528;52.124;5.196;2023-12-29T07:55:13;9.38;;;2.42;;
20734;SDS011;10528;52.124;5.196;2023-12-29T07:57:42;12.02;;;2.50;;
20734;SDS011;10528;52.124;5.196;2023-12-29T08:00:10;9.85;;;2.42;;
20734;SDS011;10528;52.124;5.196;2023-12-29T08:02:38;9.73;;;2.55;;
20734;SDS011;10528;52.124;5.196;2023-12-29T08:05:05;8.50;;;2.13;;
20734;SDS011;10528;52.124;5.196;2023-12-29T08:07:35;5.80;;;1.90;;
20734;SDS011;10528;52.124;5.196;2023-12-29T08:10:06;7.72;;;2.40;;
20734;SDS011;10528;52.124;5.196;2023-12-29T08:12:34;7.95;;;1.92;;
20734;SDS011;10528;52.124;5.196;2023-12-29T08:15:02;6.53;;;1.90;;
20734;SDS011;10528;52.124;5.196;2023-12-29T08:17:30;9.82;;;2.10;;
20734;SDS011;10528;52.124;5.196;2023-12-29T08:19:57;8.75;;;1.83;;
20734;SDS011;10528;52.124;5.196;2023-12-29T08:22:25;5.95;;;1.85;;
20734;SDS011;10528;52.124;5.196;2023-12-29T08:24:56;7.35;;;1.80;;
20734;SDS011;10528;52.124;5.196;2023-12-29T08:27:23;8.93;;;1.58;;
20734;SDS011;10528;52.124;5.196;2023-12-29T08:29:52;9.65;;;1.70;;
20734;SDS011;10528;52.124;5.196;2023-12-29T08:32:20;8.20;;;2.30;;
20734;SDS011;10528;52.124;5.196;2023-12-29T08:34:48;8.02;;;2.00;;
20734;SDS011;10528;52.124;5.196;2023-12-29T08:37:15;8.32;;;1.95;;
20734;SDS011;10528;52.124;5.196;2023-12-29T08:39:46;6.97;;;2.00;;
20734;SDS011;10528;52.124;5.196;2023-12-29T08:42:14;6.07;;;1.98;;
20734;SDS011;10528;52.124;5.196;2023-12-29T08:44:42;6.72;;;1.63;;
20734;SDS011;10528;52.124;5.196;2023-12-29T08:47:09;5.88;;;1.77;;
20734;SDS011;10528;52.124;5.196;2023-12-29T08:49:36;4.95;;;1.58;;
20734;SDS011;10528;52.124;5.196;2023-12-29T08:52:05;9.95;;;1.90;;
20734;SDS011;10528;52.124;5.196;2023-12-29T08:54:32;8.82;;;1.75;;
20734;SDS011;10528;52.124;5.196;2023-12-29T08:56:59;5.20;;;1.77;;
20734;SDS011;10528;52.124;5.196;2023-12-29T08:59:26;9.95;;;2.03;;
20734;SDS011;10528;52.124;5.196;2023-12-29T09:01:53;8.73;;;1.80;;
20734;SDS011;10528;52.124;5.196;2023-12-29T09:04:21;9.18;;;2.15;;
20734;SDS011;10528;52.124;5.196;2023-12-29T09:06:48;8.88;;;1.60;;
20734;SDS011;10528;52.124;5.196;2023-12-29T09:09:16;9.70;;;1.75;;
20734;SDS011;10528;52.124;5.196;2023-12-29T09:11:43;6.13;;;2.00;;
20734;SDS011;10528;52.124;5.196;2023-12-29T09:14:11;6.25;;;1.63;;
20734;SDS011;10528;52.124;5.196;2023-12-29T09:16:38;10.00;;;1.83;;
20734;SDS011;10528;52.124;5.196;2023-12-29T09:19:09;6.03;;;1.63;;
20734;SDS011;10528;52.124;5.196;2023-12-29T09:21:56;4.65;;;1.35;;
20734;SDS011;10528;52.124;5.196;2023-12-29T09:24:23;8.10;;;1.85;;
20734;SDS011;10528;52.124;5.196;2023-12-29T09:26:50;4.78;;;1.40;;
20734;SDS011;10528;52.124;5.196;2023-12-29T09:29:18;6.35;;;1.58;;
20734;SDS011;10528;52.124;5.196;2023-12-29T09:31:45;10.40;;;2.05;;
20734;SDS011;10528;52.124;5.196;2023-12-29T09:34:12;7.90;;;2.33;;
20734;SDS011;10528;52.124;5.196;2023-12-29T09:36:39;8.25;;;1.52;;
20734;SDS011;10528;52.124;5.196;2023-12-29T09:39:06;5.18;;;1.50;;
20734;SDS011;10528;52.124;5.196;2023-12-29T09:41:33;5.90;;;1.65;;
20734;SDS011;10528;52.124;5.196;2023-12-29T09:44:09;3.88;;;1.25;;
20734;SDS011;10528;52.124;5.196;2023-12-29T09:46:41;8.40;;;1.80;;
20734;SDS011;10528;52.124;5.196;2023-12-29T09:49:09;6.20;;;1.60;;
20734;SDS011;10528;52.124;5.196;2023-12-29T09:51:38;7.30;;;1.80;;
20734;SDS011;10528;52.124;5.196;2023-12-29T09:54:07;8.25;;;1.92;;
20734;SDS011;10528;52.124;5.196;2023-12-29T09:56:39;8.98;;;1.67;;
20734;SDS011;10528;52.124;5.196;2023-12-29T09:59:11;5.15;;;1.35;;
20734;SDS011;10528;52.124;5.196;2023-12-29T10:01:40;6.35;;;1.35;;
20734;SDS011;10528;52.124;5.196;2023-12-29T10:04:11;5.47;;;1.42;;
20734;SDS011;10528;52.124;5.196;2023-12-29T10:06:40;7.47;;;1.30;;
20734;SDS011;10528;52.124;5.196;2023-12-29T10:09:15;7.35;;;1.40;;
20734;SDS011;10528;52.124;5.196;2023-12-29T10:11:47;6.82;;;1.60;;
20734;SDS011;10528;52.124;5.196;2023-12-29T10:14:19;6.88;;;1.80;;
20734;SDS011;10528;52.124;5.196;2023-12-29T10:17:06;6.63;;;1.80;;
20734;SDS011;10528;52.124;5.196;2023-12-29T10:19:46;7.15;;;1.63;;
20734;SDS011;10528;52.124;5.196;2023-12-29T10:22:35;8.15;;;2.17;;
20734;SDS011;10528;52.124;5.196;2023-12-29T10:25:18;7.60;;;2.33;;
20734;SDS011;10528;52.124;5.196;2023-12-29T10:27:46;6.72;;;1.83;;
20734;SDS011;10528;52.124;5.196;2023-12-29T10:30:13;8.65;;;2.60;;
20734;SDS011;10528;52.124;5.196;2023-12-29T10:32:53;6.28;;;1.90;;
20734;SDS011;10528;52.124;5.196;2023-12-29T10:35:21;6.60;;;1.80;;
20734;SDS011;10528;52.124;5.196;2023-12-29T10:37:52;11.25;;;3.45;;
20734;SDS011;10528;52.124;5.196;2023-12-29T10:40:19;10.90;;;3.67;;
20734;SDS011;10528;52.124;5.196;2023-12-29T10:42:54;6.65;;;2.65;;
20734;SDS011;10528;52.124;5.196;2023-12-29T10:45:24;5.40;;;1.70;;
20734;SDS011;10528;52.124;5.196;2023-12-29T10:47:51;7.80;;;2.67;;
20734;SDS011;10528;52.124;5.196;2023-12-29T10:50:18;9.07;;;3.00;;
20734;SDS011;10528;52.124;5.196;2023-12-29T10:52:45;6.95;;;1.73;;
20734;SDS011;10528;52.124;5.196;2023-12-29T10:55:12;9.77;;;1.75;;
20734;SDS011;10528;52.124;5.196;2023-12-29T10:57:40;6.90;;;1.45;;
20734;SDS011;10528;52.124;5.196;2023-12-29T11:00:08;8.02;;;1.85;;
20734;SDS011;10528;52.124;5.196;2023-12-29T11:02:38;4.80;;;1.30;;
20734;SDS011;10528;52.124;5.196;2023-12-29T11:05:06;9.75;;;2.03;;
20734;SDS011;10528;52.124;5.196;2023-12-29T11:07:35;9.45;;;3.67;;
20734;SDS011;10528;52.124;5.196;2023-12-29T11:10:07;9.10;;;2.50;;
20734;SDS011;10528;52.124;5.196;2023-12-29T11:12:36;14.88;;;3.58;;
20734;SDS011;10528;52.124;5.196;2023-12-29T11:15:05;12.80;;;2.80;;
20734;SDS011;10528;52.124;5.196;2023-12-29T11:17:34;12.98;;;2.83;;
20734;SDS011;10528;52.124;5.196;2023-12-29T11:20:03;14.10;;;4.50;;
20734;SDS011;10528;52.124;5.196;2023-12-29T11:22:31;13.13;;;2.50;;
20734;SDS011;10528;52.124;5.196;2023-12-29T11:25:00;11.32;;;2.40;;
20734;SDS011;10528;52.124;5.196;2023-12-29T11:27:27;13.45;;;4.03;;
20734;SDS011;10528;52.124;5.196;2023-12-29T11:30:00;11.45;;;2.88;;
20734;SDS011;10528;52.124;5.196;2023-12-29T11:35:32;16.52;;;2.85;;
20734;SDS011;10528;52.124;5.196;2023-12-29T11:43:44;16.33;;;3.58;;
20734;SDS011;10528;52.124;5.196;2023-12-29T11:46:32;14.80;;;2.88;;
20734;SDS011;10528;52.124;5.196;2023-12-29T11:49:05;9.18;;;2.25;;
20734;SDS011;10528;52.124;5.196;2023-12-29T11:51:39;14.35;;;5.50;;
20734;SDS011;10528;52.124;5.196;2023-12-29T11:54:10;13.43;;;2.08;;
20734;SDS011;10528;52.124;5.196;2023-12-29T11:56:53;12.73;;;2.70;;
20734;SDS011;10528;52.124;5.196;2023-12-29T11:59:24;17.05;;;6.35;;
20734;SDS011;10528;52.124;5.196;2023-12-29T12:01:54;17.92;;;5.30;;
20734;SDS011;10528;52.124;5.196;2023-12-29T12:04:33;22.73;;;6.63;;
20734;SDS011;10528;52.124;5.196;2023-12-29T12:07:09;26.55;;;7.22;;
20734;SDS011;10528;52.124;5.196;2023-12-29T12:12:49;25.48;;;9.23;;
20734;SDS011;10528;52.124;5.196;2023-12-29T12:17:58;19.20;;;6.05;;
20734;SDS011;10528;52.124;5.196;2023-12-29T12:20:27;24.52;;;6.93;;
20734;SDS011;10528;52.124;5.196;2023-12-29T12:22:58;16.65;;;2.72;;
20734;SDS011;10528;52.124;5.196;2023-12-29T12:25:31;15.20;;;3.50;;
20734;SDS011;10528;52.124;5.196;2023-12-29T12:28:06;16.25;;;3.10;;
20734;SDS011;10528;52.124;5.196;2023-12-29T12:30:35;11.30;;;3.88;;
20734;SDS011;10528;52.124;5.196;2023-12-29T12:33:03;18.05;;;4.60;;
20734;SDS011;10528;52.124;5.196;2023-12-29T12:35:32;13.68;;;3.33;;
20734;SDS011;10528;52.124;5.196;2023-12-29T12:38:09;13.27;;;2.50;;
20734;SDS011;10528;52.124;5.196;2023-12-29T12:40:50;15.57;;;3.25;;
20734;SDS011;10528;52.124;5.196;2023-12-29T12:43:17;16.05;;;3.45;;
20734;SDS011;10528;52.124;5.196;2023-12-29T12:45:48;12.95;;;2.47;;
20734;SDS011;10528;52.124;5.196;2023-12-29T12:48:35;10.23;;;2.30;;
20734;SDS011;10528;52.124;5.196;2023-12-29T12:51:12;11.38;;;2.75;;
20734;SDS011;10528;52.124;5.196;2023-12-29T12:53:41;11.23;;;3.03;;
20734;SDS011;10528;52.124;5.196;2023-12-29T12:56:10;12.02;;;2.53;;
20734;SDS011;10528;52.124;5.196;2023-12-29T12:58:37;14.32;;;3.47;;
20734;SDS011;10528;52.124;5.196;2023-12-29T13:01:05;12.35;;;2.58;;
20734;SDS011;10528;52.124;5.196;2023-12-29T13:03:33;18.52;;;3.40;;
20734;SDS011;10528;52.124;5.196;2023-12-29T13:06:04;10.25;;;2.50;;
20734;SDS011;10528;52.124;5.196;2023-12-29T13:08:33;13.63;;;1.90;;
20734;SDS011;10528;52.124;5.196;2023-12-29T13:11:08;14.85;;;3.35;;
20734;SDS011;10528;52.124;5.196;2023-12-29T13:13:38;13.77;;;3.22;;
20734;SDS011;10528;52.124;5.196;2023-12-29T13:16:07;11.48;;;2.78;;
20734;SDS011;10528;52.124;5.196;2023-12-29T13:18:34;16.23;;;3.42;;
20734;SDS011;10528;52.124;5.196;2023-12-29T13:21:02;12.18;;;3.38;;
20734;SDS011;10528;52.124;5.196;2023-12-29T13:23:30;11.05;;;1.92;;
20734;SDS011;10528;52.124;5.196;2023-12-29T13:25:57;12.90;;;3.25;;
20734;SDS011;10528;52.124;5.196;2023-12-29T13:28:28;13.20;;;3.40;;
20734;SDS011;10528;52.124;5.196;2023-12-29T13:31:00;14.57;;;3.85;;
20734;SDS011;10528;52.124;5.196;2023-12-29T13:33:33;11.82;;;3.17;;
20734;SDS011;10528;52.124;5.196;2023-12-29T13:36:47;11.85;;;3.50;;
20734;SDS011;10528;52.124;5.196;2023-12-29T13:42:17;16.75;;;6.57;;
20734;SDS011;10528;52.124;5.196;2023-12-29T13:44:48;13.65;;;4.47;;
20734;SDS011;10528;52.124;5.196;2023-12-29T13:47:17;11.40;;;2.30;;
20734;SDS011;10528;52.124;5.196;2023-12-29T13:49:46;13.18;;;2.50;;
20734;SDS011;10528;52.124;5.196;2023-12-29T13:52:15;12.52;;;3.28;;
20734;SDS011;10528;52.124;5.196;2023-12-29T13:54:44;13.32;;;4.03;;
20734;SDS011;10528;52.124;5.196;2023-12-29T13:57:11;20.08;;;4.03;;
20734;SDS011;10528;52.124;5.196;2023-12-29T13:59:39;8.10;;;2.30;;
20734;SDS011;10528;52.124;5.196;2023-12-29T14:02:20;14.35;;;3.28;;
20734;SDS011;10528;52.124;5.196;2023-12-29T14:05:10;14.40;;;2.70;;
20734;SDS011;10528;52.124;5.196;2023-12-29T14:07:45;11.93;;;2.78;;
20734;SDS011;10528;52.124;5.196;2023-12-29T14:10:36;11.15;;;3.17;;
20734;SDS011;10528;52.124;5.196;2023-12-29T14:13:04;12.65;;;4.63;;
20734;SDS011;10528;52.124;5.196;2023-12-29T14:15:38;13.40;;;3.20;;
20734;SDS011;10528;52.124;5.196;2023-12-29T14:26:39;17.63;;;7.97;;
20734;SDS011;10528;52.124;5.196;2023-12-29T14:29:12;8.98;;;2.60;;
20734;SDS011;10528;52.124;5.196;2023-12-29T14:31:43;11.73;;;3.45;;
20734;SDS011;10528;52.124;5.196;2023-12-29T14:34:11;13.70;;;2.90;;
20734;SDS011;10528;52.124;5.196;2023-12-29T14:36:40;13.10;;;3.10;;
20734;SDS011;10528;52.124;5.196;2023-12-29T14:39:08;12.10;;;2.97;;
20734;SDS011;10528;52.124;5.196;2023-12-29T14:41:37;16.67;;;3.95;;
20734;SDS011;10528;52.124;5.196;2023-12-29T14:44:04;16.95;;;4.05;;
20734;SDS011;10528;52.124;5.196;2023-12-29T14:46:31;16.02;;;3.22;;
20734;SDS011;10528;52.124;5.196;2023-12-29T14:49:02;12.18;;;2.45;;
20734;SDS011;10528;52.124;5.196;2023-12-29T14:51:30;13.05;;;2.33;;
20734;SDS011;10528;52.124;5.196;2023-12-29T14:53:57;12.55;;;2.25;;
20734;SDS011;10528;52.124;5.196;2023-12-29T14:56:24;11.60;;;2.42;;
20734;SDS011;10528;52.124;5.196;2023-12-29T14:58:51;13.95;;;3.80;;
20734;SDS011;10528;52.124;5.196;2023-12-29T15:01:18;15.70;;;3.53;;
20734;SDS011;10528;52.124;5.196;2023-12-29T15:03:46;17.65;;;5.18;;
20734;SDS011;10528;52.124;5.196;2023-12-29T15:06:13;15.57;;;3.65;;
20734;SDS011;10528;52.124;5.196;2023-12-29T15:08:40;18.60;;;6.30;;
20734;SDS011;10528;52.124;5.196;2023-12-29T15:11:07;23.17;;;7.38;;
20734;SDS011;10528;52.124;5.196;2023-12-29T15:13:34;17.05;;;4.38;;
20734;SDS011;10528;52.124;5.196;2023-12-29T15:16:02;15.40;;;3.03;;
20734;SDS011;10528;52.124;5.196;2023-12-29T15:18:30;15.38;;;2.72;;